sensor_id;sensor_type;location;lat;lon;timestamp;P1;durP1;ratioP1;P2;durP2;ratioP2
5674;SDS011;2860;54.284;10.158;2023-03-24T00:00:03;21.52;;;12.75;;
5674;SDS011;2860;54.284;10.158;2023-03-24T00:02:32;22.25;;;13.18;;
5674;SDS011;2860;54.284;10.158;2023-03-24T00:05:01;19.88;;;13.82;;
5674;SDS011;2860;54.284;10.158;2023-03-24T00:07:30;19.67;;;14.00;;
5674;SDS011;2860;54.284;10.158;2023-03-24T00:09:58;25.35;;;14.48;;
5674;SDS011;2860;54.284;10.158;2023-03-24T00:12:24;24.20;;;14.23;;
5674;SDS011;2860;54.284;10.158;2023-03-24T00:14:50;22.55;;;15.73;;
5674;SDS011;2860;54.284;10.158;2023-03-24T00:17:18;24.95;;;16.35;;
5674;SDS011;2860;54.284;10.158;2023-03-24T00:19:44;24.33;;;15.98;;
5674;SDS011;2860;54.284;10.158;2023-03-24T00:22:10;22.85;;;15.55;;
5674;SDS011;2860;54.284;10.158;2023-03-24T00:24:39;26.88;;;16.15;;
5674;SDS011;2860;54.284;10.158;2023-03-24T00:27:05;27.92;;;17.30;;
5674;SDS011;2860;54.284;10.158;2023-03-24T00:29:32;23.45;;;16.15;;
5674;SDS011;2860;54.284;10.158;2023-03-24T00:31:58;22.48;;;16.13;;
5674;SDS011;2860;54.284;10.158;2023-03-24T00:34:24;23.13;;;16.05;;
5674;SDS011;2860;54.284;10.158;2023-03-24T00:36:50;19.65;;;14.82;;
5674;SDS011;2860;54.284;10.158;2023-03-24T00:39:18;24.90;;;15.70;;
5674;SDS011;2860;54.284;10.158;2023-03-24T00:41:45;21.85;;;15.82;;
5674;SDS011;2860;54.284;10.158;2023-03-24T00:44:12;21.73;;;15.50;;
5674;SDS011;2860;54.284;10.158;2023-03-24T00:46:48;26.63;;;14.98;;
5674;SDS011;2860;54.284;10.158;2023-03-24T00:49:21;21.38;;;14.90;;
5674;SDS011;2860;54.284;10.158;2023-03-24T00:52:15;24.15;;;15.45;;
5674;SDS011;2860;54.284;10.158;2023-03-24T00:54:44;22.20;;;15.73;;
5674;SDS011;2860;54.284;10.158;2023-03-24T00:57:13;19.65;;;14.45;;
5674;SDS011;2860;54.284;10.158;2023-03-24T00:59:48;18.75;;;13.90;;
5674;SDS011;2860;54.284;10.158;2023-03-24T01:02:16;23.23;;;14.90;;
5674;SDS011;2860;54.284;10.158;2023-03-24T01:04:46;18.65;;;13.65;;
5674;SDS011;2860;54.284;10.158;2023-03-24T01:07:21;16.55;;;13.10;;
5674;SDS011;2860;54.284;10.158;2023-03-24T01:09:48;21.13;;;13.07;;
5674;SDS011;2860;54.284;10.158;2023-03-24T01:12:21;20.48;;;13.35;;
5674;SDS011;2860;54.284;10.158;2023-03-24T01:14:52;17.48;;;13.05;;
5674;SDS011;2860;54.284;10.158;2023-03-24T01:17:18;15.40;;;12.75;;
5674;SDS011;2860;54.284;10.158;2023-03-24T01:19:46;16.83;;;12.60;;
5674;SDS011;2860;54.284;10.158;2023-03-24T01:22:12;16.73;;;12.32;;
5674;SDS011;2860;54.284;10.158;2023-03-24T01:24:38;19.10;;;12.55;;
5674;SDS011;2860;54.284;10.158;2023-03-24T01:27:03;16.27;;;12.25;;
5674;SDS011;2860;54.284;10.158;2023-03-24T01:29:29;18.70;;;11.85;;
5674;SDS011;2860;54.284;10.158;2023-03-24T01:31:55;16.13;;;11.95;;
5674;SDS011;2860;54.284;10.158;2023-03-24T01:34:21;17.75;;;12.23;;
5674;SDS011;2860;54.284;10.158;2023-03-24T01:36:46;16.48;;;11.55;;
5674;SDS011;2860;54.284;10.158;2023-03-24T01:39:12;14.95;;;11.27;;
5674;SDS011;2860;54.284;10.158;2023-03-24T01:41:37;18.25;;;12.32;;
5674;SDS011;2860;54.284;10.158;2023-03-24T01:46:50;13.00;;;10.23;;
5674;SDS011;2860;54.284;10.158;2023-03-24T01:49:30;17.83;;;11.07;;
5674;SDS011;2860;54.284;10.158;2023-03-24T01:52:01;11.57;;;10.27;;
5674;SDS011;2860;54.284;10.158;2023-03-24T01:54:35;15.52;;;11.27;;
5674;SDS011;2860;54.284;10.158;2023-03-24T01:57:08;14.32;;;11.02;;
5674;SDS011;2860;54.284;10.158;2023-03-24T01:59:39;15.48;;;10.77;;
5674;SDS011;2860;54.284;10.158;2023-03-24T02:02:12;20.00;;;11.95;;
5674;SDS011;2860;54.284;10.158;2023-03-24T02:04:42;15.18;;;10.80;;
5674;SDS011;2860;54.284;10.158;2023-03-24T02:07:15;17.20;;;11.75;;
5674;SDS011;2860;54.284;10.158;2023-03-24T02:09:55;17.20;;;11.30;;
5674;SDS011;2860;54.284;10.158;2023-03-24T02:12:21;20.13;;;11.52;;
5674;SDS011;2860;54.284;10.158;2023-03-24T02:14:47;14.40;;;10.45;;
5674;SDS011;2860;54.284;10.158;2023-03-24T02:20:24;12.52;;;10.48;;
5674;SDS011;2860;54.284;10.158;2023-03-24T02:25:46;13.52;;;10.43;;
5674;SDS011;2860;54.284;10.158;2023-03-24T02:28:50;15.65;;;10.95;;
5674;SDS011;2860;54.284;10.158;2023-03-24T02:34:33;10.98;;;9.05;;
5674;SDS011;2860;54.284;10.158;2023-03-24T02:37:39;15.80;;;10.00;;
5674;SDS011;2860;54.284;10.158;2023-03-24T02:40:22;17.48;;;11.27;;
5674;SDS011;2860;54.284;10.158;2023-03-24T02:43:10;14.93;;;10.27;;
5674;SDS011;2860;54.284;10.158;2023-03-24T02:48:36;11.45;;;9.82;;
5674;SDS011;2860;54.284;10.158;2023-03-24T02:51:12;11.25;;;9.95;;
5674;SDS011;2860;54.284;10.158;2023-03-24T02:57:05;19.15;;;11.70;;
5674;SDS011;2860;54.284;10.158;2023-03-24T03:02:49;13.35;;;10.00;;
5674;SDS011;2860;54.284;10.158;2023-03-24T03:05:28;11.73;;;10.60;;
5674;SDS011;2860;54.284;10.158;2023-03-24T03:07:59;12.15;;;10.98;;
5674;SDS011;2860;54.284;10.158;2023-03-24T03:10:28;15.77;;;11.88;;
5674;SDS011;2860;54.284;10.158;2023-03-24T03:13:00;13.82;;;11.60;;
5674;SDS011;2860;54.284;10.158;2023-03-24T03:15:36;13.05;;;10.32;;
5674;SDS011;2860;54.284;10.158;2023-03-24T03:20:37;13.20;;;11.55;;
5674;SDS011;2860;54.284;10.158;2023-03-24T03:23:07;12.85;;;11.15;;
5674;SDS011;2860;54.284;10.158;2023-03-24T03:25:39;13.07;;;11.63;;
5674;SDS011;2860;54.284;10.158;2023-03-24T03:28:10;15.27;;;12.77;;
5674;SDS011;2860;54.284;10.158;2023-03-24T03:30:39;13.45;;;11.88;;
5674;SDS011;2860;54.284;10.158;2023-03-24T03:33:08;14.82;;;11.90;;
5674;SDS011;2860;54.284;10.158;2023-03-24T03:35:43;12.10;;;10.98;;
5674;SDS011;2860;54.284;10.158;2023-03-24T03:38:15;16.30;;;12.10;;
5674;SDS011;2860;54.284;10.158;2023-03-24T03:40:50;16.77;;;13.15;;
5674;SDS011;2860;54.284;10.158;2023-03-24T03:43:19;18.67;;;13.00;;
5674;SDS011;2860;54.284;10.158;2023-03-24T03:45:45;14.80;;;12.93;;
5674;SDS011;2860;54.284;10.158;2023-03-24T03:48:11;16.88;;;13.63;;
5674;SDS011;2860;54.284;10.158;2023-03-24T03:50:37;14.60;;;12.85;;
5674;SDS011;2860;54.284;10.158;2023-03-24T03:53:03;14.13;;;12.43;;
5674;SDS011;2860;54.284;10.158;2023-03-24T03:55:30;12.70;;;11.63;;
5674;SDS011;2860;54.284;10.158;2023-03-24T03:57:56;13.07;;;12.02;;
5674;SDS011;2860;54.284;10.158;2023-03-24T04:00:22;15.18;;;12.38;;
5674;SDS011;2860;54.284;10.158;2023-03-24T04:05:26;25.25;;;11.70;;
5674;SDS011;2860;54.284;10.158;2023-03-24T04:08:04;12.82;;;11.77;;
5674;SDS011;2860;54.284;10.158;2023-03-24T04:10:47;15.73;;;12.38;;
5674;SDS011;2860;54.284;10.158;2023-03-24T04:16:43;13.23;;;12.10;;
5674;SDS011;2860;54.284;10.158;2023-03-24T04:27:45;17.15;;;11.82;;
5674;SDS011;2860;54.284;10.158;2023-03-24T04:30:37;12.20;;;10.90;;
5674;SDS011;2860;54.284;10.158;2023-03-24T04:33:17;13.30;;;10.85;;
5674;SDS011;2860;54.284;10.158;2023-03-24T04:35:51;12.65;;;10.60;;
5674;SDS011;2860;54.284;10.158;2023-03-24T04:38:23;12.07;;;10.93;;
5674;SDS011;2860;54.284;10.158;2023-03-24T04:40:52;11.73;;;10.57;;
5674;SDS011;2860;54.284;10.158;2023-03-24T04:43:21;12.30;;;11.13;;
5674;SDS011;2860;54.284;10.158;2023-03-24T04:45:51;12.13;;;10.90;;
5674;SDS011;2860;54.284;10.158;2023-03-24T04:48:22;12.52;;;10.80;;
5674;SDS011;2860;54.284;10.158;2023-03-24T04:50:52;10.95;;;9.93;;
5674;SDS011;2860;54.284;10.158;2023-03-24T04:53:20;13.07;;;11.10;;
5674;SDS011;2860;54.284;10.158;2023-03-24T04:55:52;11.35;;;10.48;;
5674;SDS011;2860;54.284;10.158;2023-03-24T04:58:24;13.02;;;11.82;;
5674;SDS011;2860;54.284;10.158;2023-03-24T05:00:50;12.23;;;11.10;;
5674;SDS011;2860;54.284;10.158;2023-03-24T05:03:16;11.35;;;10.45;;
5674;SDS011;2860;54.284;10.158;2023-03-24T05:05:43;11.88;;;10.95;;
5674;SDS011;2860;54.284;10.158;2023-03-24T05:08:11;11.90;;;10.85;;
5674;SDS011;2860;54.284;10.158;2023-03-24T05:10:37;13.00;;;11.88;;
5674;SDS011;2860;54.284;10.158;2023-03-24T05:13:03;12.18;;;10.93;;
5674;SDS011;2860;54.284;10.158;2023-03-24T05:15:30;13.25;;;11.60;;
5674;SDS011;2860;54.284;10.158;2023-03-24T05:17:55;12.77;;;11.57;;
5674;SDS011;2860;54.284;10.158;2023-03-24T05:20:21;12.55;;;11.00;;
5674;SDS011;2860;54.284;10.158;2023-03-24T05:22:47;12.38;;;11.38;;
5674;SDS011;2860;54.284;10.158;2023-03-24T05:25:14;12.98;;;11.65;;
5674;SDS011;2860;54.284;10.158;2023-03-24T05:27:40;14.10;;;11.40;;
5674;SDS011;2860;54.284;10.158;2023-03-24T05:30:06;13.85;;;11.45;;
5674;SDS011;2860;54.284;10.158;2023-03-24T05:32:32;12.82;;;11.13;;
5674;SDS011;2860;54.284;10.158;2023-03-24T05:34:58;12.68;;;11.18;;
5674;SDS011;2860;54.284;10.158;2023-03-24T05:37:24;13.32;;;11.77;;
5674;SDS011;2860;54.284;10.158;2023-03-24T05:39:51;12.35;;;10.90;;
5674;SDS011;2860;54.284;10.158;2023-03-24T05:42:17;13.32;;;11.60;;
5674;SDS011;2860;54.284;10.158;2023-03-24T05:44:43;11.70;;;10.60;;
5674;SDS011;2860;54.284;10.158;2023-03-24T05:47:09;12.23;;;10.90;;
5674;SDS011;2860;54.284;10.158;2023-03-24T05:49:37;11.90;;;10.90;;
5674;SDS011;2860;54.284;10.158;2023-03-24T05:52:03;11.48;;;10.45;;
5674;SDS011;2860;54.284;10.158;2023-03-24T05:54:29;10.35;;;9.50;;
5674;SDS011;2860;54.284;10.158;2023-03-24T05:56:57;11.07;;;10.07;;
5674;SDS011;2860;54.284;10.158;2023-03-24T05:59:23;12.10;;;10.95;;
5674;SDS011;2860;54.284;10.158;2023-03-24T06:01:49;9.65;;;8.75;;
5674;SDS011;2860;54.284;10.158;2023-03-24T06:04:17;8.65;;;7.95;;
5674;SDS011;2860;54.284;10.158;2023-03-24T06:06:44;8.88;;;8.18;;
5674;SDS011;2860;54.284;10.158;2023-03-24T06:09:11;9.25;;;8.43;;
5674;SDS011;2860;54.284;10.158;2023-03-24T06:11:38;8.52;;;8.02;;
5674;SDS011;2860;54.284;10.158;2023-03-24T06:14:04;9.52;;;8.68;;
5674;SDS011;2860;54.284;10.158;2023-03-24T06:16:31;8.38;;;7.68;;
5674;SDS011;2860;54.284;10.158;2023-03-24T06:18:58;8.98;;;8.27;;
5674;SDS011;2860;54.284;10.158;2023-03-24T06:21:24;9.25;;;8.63;;
5674;SDS011;2860;54.284;10.158;2023-03-24T06:23:54;9.52;;;8.85;;
5674;SDS011;2860;54.284;10.158;2023-03-24T06:26:22;10.57;;;9.65;;
5674;SDS011;2860;54.284;10.158;2023-03-24T06:28:47;10.57;;;9.77;;
5674;SDS011;2860;54.284;10.158;2023-03-24T06:31:16;10.55;;;9.73;;
5674;SDS011;2860;54.284;10.158;2023-03-24T06:33:44;10.10;;;9.30;;
5674;SDS011;2860;54.284;10.158;2023-03-24T06:36:10;11.25;;;10.35;;
5674;SDS011;2860;54.284;10.158;2023-03-24T06:38:37;10.38;;;9.73;;
5674;SDS011;2860;54.284;10.158;2023-03-24T06:41:03;9.38;;;8.60;;
5674;SDS011;2860;54.284;10.158;2023-03-24T06:43:29;9.13;;;8.57;;
5674;SDS011;2860;54.284;10.158;2023-03-24T06:45:55;9.73;;;9.13;;
5674;SDS011;2860;54.284;10.158;2023-03-24T06:48:21;10.18;;;9.48;;
5674;SDS011;2860;54.284;10.158;2023-03-24T06:50:47;12.85;;;11.65;;
5674;SDS011;2860;54.284;10.158;2023-03-24T06:53:13;11.77;;;10.95;;
5674;SDS011;2860;54.284;10.158;2023-03-24T06:55:38;10.55;;;9.55;;
5674;SDS011;2860;54.284;10.158;2023-03-24T06:58:04;10.40;;;9.65;;
5674;SDS011;2860;54.284;10.158;2023-03-24T07:00:30;10.48;;;9.57;;
5674;SDS011;2860;54.284;10.158;2023-03-24T07:02:55;12.00;;;11.10;;
5674;SDS011;2860;54.284;10.158;2023-03-24T07:05:21;10.73;;;9.82;;
5674;SDS011;2860;54.284;10.158;2023-03-24T07:07:47;9.48;;;8.73;;
5674;SDS011;2860;54.284;10.158;2023-03-24T07:10:13;8.70;;;8.00;;
5674;SDS011;2860;54.284;10.158;2023-03-24T07:12:39;4.80;;;4.70;;
5674;SDS011;2860;54.284;10.158;2023-03-24T07:15:05;3.63;;;3.53;;
5674;SDS011;2860;54.284;10.158;2023-03-24T07:17:32;2.25;;;2.15;;
5674;SDS011;2860;54.284;10.158;2023-03-24T07:19:58;2.15;;;2.05;;
5674;SDS011;2860;54.284;10.158;2023-03-24T07:22:23;1.48;;;1.38;;
5674;SDS011;2860;54.284;10.158;2023-03-24T07:24:49;7.40;;;2.30;;
5674;SDS011;2860;54.284;10.158;2023-03-24T07:27:14;6.38;;;1.67;;
5674;SDS011;2860;54.284;10.158;2023-03-24T07:29:41;4.47;;;1.48;;
5674;SDS011;2860;54.284;10.158;2023-03-24T07:32:07;5.82;;;1.90;;
5674;SDS011;2860;54.284;10.158;2023-03-24T07:34:33;8.07;;;1.80;;
5674;SDS011;2860;54.284;10.158;2023-03-24T07:37:00;4.13;;;1.88;;
5674;SDS011;2860;54.284;10.158;2023-03-24T07:39:26;6.45;;;1.88;;
5674;SDS011;2860;54.284;10.158;2023-03-24T07:41:52;6.50;;;2.00;;
5674;SDS011;2860;54.284;10.158;2023-03-24T07:44:17;6.18;;;2.05;;
5674;SDS011;2860;54.284;10.158;2023-03-24T07:46:43;14.38;;;2.80;;
5674;SDS011;2860;54.284;10.158;2023-03-24T07:49:08;8.32;;;3.00;;
5674;SDS011;2860;54.284;10.158;2023-03-24T07:51:34;15.10;;;2.35;;
5674;SDS011;2860;54.284;10.158;2023-03-24T07:53:59;10.35;;;2.13;;
5674;SDS011;2860;54.284;10.158;2023-03-24T07:56:25;6.40;;;1.88;;
5674;SDS011;2860;54.284;10.158;2023-03-24T07:58:51;11.23;;;2.72;;
5674;SDS011;2860;54.284;10.158;2023-03-24T08:01:16;11.55;;;2.50;;
5674;SDS011;2860;54.284;10.158;2023-03-24T08:03:42;8.30;;;3.20;;
5674;SDS011;2860;54.284;10.158;2023-03-24T08:06:07;6.88;;;2.08;;
5674;SDS011;2860;54.284;10.158;2023-03-24T08:08:34;13.43;;;2.50;;
5674;SDS011;2860;54.284;10.158;2023-03-24T08:11:00;10.10;;;2.13;;
5674;SDS011;2860;54.284;10.158;2023-03-24T08:13:26;15.43;;;2.33;;
5674;SDS011;2860;54.284;10.158;2023-03-24T08:15:52;19.27;;;3.50;;
5674;SDS011;2860;54.284;10.158;2023-03-24T08:18:18;11.77;;;2.50;;
5674;SDS011;2860;54.284;10.158;2023-03-24T08:20:45;14.73;;;2.47;;
5674;SDS011;2860;54.284;10.158;2023-03-24T08:23:11;2.58;;;1.38;;
5674;SDS011;2860;54.284;10.158;2023-03-24T08:25:37;10.25;;;1.60;;
5674;SDS011;2860;54.284;10.158;2023-03-24T08:28:03;8.63;;;2.42;;
5674;SDS011;2860;54.284;10.158;2023-03-24T08:30:29;7.95;;;1.98;;
5674;SDS011;2860;54.284;10.158;2023-03-24T08:32:56;6.60;;;1.80;;
5674;SDS011;2860;54.284;10.158;2023-03-24T08:35:24;3.30;;;2.00;;
5674;SDS011;2860;54.284;10.158;2023-03-24T08:37:55;9.85;;;2.50;;
5674;SDS011;2860;54.284;10.158;2023-03-24T08:40:23;4.95;;;2.17;;
5674;SDS011;2860;54.284;10.158;2023-03-24T08:42:50;8.38;;;2.03;;
5674;SDS011;2860;54.284;10.158;2023-03-24T08:45:21;7.88;;;1.98;;
5674;SDS011;2860;54.284;10.158;2023-03-24T08:47:49;5.75;;;2.30;;
5674;SDS011;2860;54.284;10.158;2023-03-24T08:50:16;7.45;;;2.40;;
5674;SDS011;2860;54.284;10.158;2023-03-24T08:52:43;16.38;;;2.25;;
5674;SDS011;2860;54.284;10.158;2023-03-24T08:55:12;8.52;;;2.20;;
5674;SDS011;2860;54.284;10.158;2023-03-24T08:57:38;5.95;;;2.00;;
5674;SDS011;2860;54.284;10.158;2023-03-24T09:00:04;5.13;;;2.10;;
5674;SDS011;2860;54.284;10.158;2023-03-24T09:02:42;6.35;;;1.58;;
5674;SDS011;2860;54.284;10.158;2023-03-24T09:05:10;7.40;;;2.10;;
5674;SDS011;2860;54.284;10.158;2023-03-24T09:07:37;9.60;;;2.28;;
5674;SDS011;2860;54.284;10.158;2023-03-24T09:10:04;9.73;;;2.13;;
5674;SDS011;2860;54.284;10.158;2023-03-24T09:12:31;12.65;;;2.10;;
5674;SDS011;2860;54.284;10.158;2023-03-24T09:14:57;4.78;;;2.28;;
5674;SDS011;2860;54.284;10.158;2023-03-24T09:17:22;12.82;;;2.60;;
5674;SDS011;2860;54.284;10.158;2023-03-24T09:19:48;10.20;;;2.58;;
5674;SDS011;2860;54.284;10.158;2023-03-24T09:22:14;8.13;;;2.40;;
5674;SDS011;2860;54.284;10.158;2023-03-24T09:24:39;10.40;;;2.75;;
5674;SDS011;2860;54.284;10.158;2023-03-24T09:27:05;7.68;;;2.83;;
5674;SDS011;2860;54.284;10.158;2023-03-24T09:29:30;8.32;;;2.45;;
5674;SDS011;2860;54.284;10.158;2023-03-24T09:31:56;6.55;;;2.88;;
5674;SDS011;2860;54.284;10.158;2023-03-24T09:34:22;12.23;;;3.22;;
5674;SDS011;2860;54.284;10.158;2023-03-24T09:36:49;4.10;;;2.13;;
5674;SDS011;2860;54.284;10.158;2023-03-24T09:39:14;10.98;;;2.10;;
5674;SDS011;2860;54.284;10.158;2023-03-24T09:41:41;7.00;;;2.40;;
5674;SDS011;2860;54.284;10.158;2023-03-24T09:44:25;5.28;;;2.10;;
5674;SDS011;2860;54.284;10.158;2023-03-24T09:50:07;1.70;;;1.40;;
5674;SDS011;2860;54.284;10.158;2023-03-24T09:52:48;6.90;;;1.90;;
5674;SDS011;2860;54.284;10.158;2023-03-24T09:55:27;7.45;;;2.33;;
5674;SDS011;2860;54.284;10.158;2023-03-24T09:57:54;11.75;;;1.98;;
5674;SDS011;2860;54.284;10.158;2023-03-24T10:00:29;8.07;;;2.63;;
5674;SDS011;2860;54.284;10.158;2023-03-24T10:02:57;3.55;;;2.05;;
5674;SDS011;2860;54.284;10.158;2023-03-24T10:05:37;5.22;;;1.88;;
5674;SDS011;2860;54.284;10.158;2023-03-24T10:08:13;6.30;;;2.25;;
5674;SDS011;2860;54.284;10.158;2023-03-24T10:13:39;8.52;;;2.63;;
5674;SDS011;2860;54.284;10.158;2023-03-24T10:16:14;11.32;;;2.90;;
5674;SDS011;2860;54.284;10.158;2023-03-24T10:19:07;7.72;;;2.05;;
5674;SDS011;2860;54.284;10.158;2023-03-24T10:21:42;3.22;;;1.80;;
5674;SDS011;2860;54.284;10.158;2023-03-24T10:24:34;7.47;;;1.88;;
5674;SDS011;2860;54.284;10.158;2023-03-24T10:27:05;10.07;;;2.17;;
5674;SDS011;2860;54.284;10.158;2023-03-24T10:29:37;7.53;;;1.95;;
5674;SDS011;2860;54.284;10.158;2023-03-24T10:32:15;7.13;;;2.88;;
5674;SDS011;2860;54.284;10.158;2023-03-24T10:34:47;7.32;;;2.15;;
5674;SDS011;2860;54.284;10.158;2023-03-24T10:37:16;7.75;;;1.55;;
5674;SDS011;2860;54.284;10.158;2023-03-24T10:39:42;11.45;;;1.90;;
5674;SDS011;2860;54.284;10.158;2023-03-24T10:42:10;13.77;;;2.47;;
5674;SDS011;2860;54.284;10.158;2023-03-24T10:44:59;9.15;;;1.80;;
5674;SDS011;2860;54.284;10.158;2023-03-24T10:47:27;7.43;;;2.15;;
5674;SDS011;2860;54.284;10.158;2023-03-24T10:49:58;7.20;;;1.88;;
5674;SDS011;2860;54.284;10.158;2023-03-24T10:52:25;7.55;;;2.13;;
5674;SDS011;2860;54.284;10.158;2023-03-24T10:54:56;5.38;;;1.85;;
5674;SDS011;2860;54.284;10.158;2023-03-24T10:57:27;13.30;;;1.83;;
5674;SDS011;2860;54.284;10.158;2023-03-24T10:59:57;16.15;;;1.92;;
5674;SDS011;2860;54.284;10.158;2023-03-24T11:02:27;11.30;;;2.58;;
5674;SDS011;2860;54.284;10.158;2023-03-24T11:07:23;9.93;;;2.20;;
5674;SDS011;2860;54.284;10.158;2023-03-24T11:12:31;9.55;;;1.65;;
5674;SDS011;2860;54.284;10.158;2023-03-24T11:17:41;11.23;;;1.92;;
5674;SDS011;2860;54.284;10.158;2023-03-24T11:20:18;10.15;;;2.47;;
5674;SDS011;2860;54.284;10.158;2023-03-24T11:23:13;13.60;;;2.63;;
5674;SDS011;2860;54.284;10.158;2023-03-24T11:25:45;19.63;;;3.58;;
5674;SDS011;2860;54.284;10.158;2023-03-24T11:31:20;6.97;;;2.08;;
5674;SDS011;2860;54.284;10.158;2023-03-24T11:33:56;17.45;;;2.17;;
5674;SDS011;2860;54.284;10.158;2023-03-24T11:39:20;5.22;;;1.60;;
5674;SDS011;2860;54.284;10.158;2023-03-24T11:44:50;8.68;;;3.00;;
5674;SDS011;2860;54.284;10.158;2023-03-24T11:52:55;9.80;;;2.40;;
5674;SDS011;2860;54.284;10.158;2023-03-24T11:58:34;6.88;;;1.38;;
5674;SDS011;2860;54.284;10.158;2023-03-24T12:01:11;10.15;;;1.67;;
5674;SDS011;2860;54.284;10.158;2023-03-24T12:14:13;12.65;;;2.03;;
5674;SDS011;2860;54.284;10.158;2023-03-24T12:16:48;8.10;;;2.10;;
5674;SDS011;2860;54.284;10.158;2023-03-24T12:19:35;8.23;;;1.90;;
5674;SDS011;2860;54.284;10.158;2023-03-24T12:28:35;8.75;;;2.03;;
5674;SDS011;2860;54.284;10.158;2023-03-24T12:31:10;12.63;;;1.75;;
5674;SDS011;2860;54.284;10.158;2023-03-24T12:36:38;8.40;;;2.42;;
5674;SDS011;2860;54.284;10.158;2023-03-24T12:39:29;6.57;;;1.77;;
5674;SDS011;2860;54.284;10.158;2023-03-24T12:42:12;8.02;;;2.20;;
5674;SDS011;2860;54.284;10.158;2023-03-24T12:44:42;7.18;;;2.00;;
5674;SDS011;2860;54.284;10.158;2023-03-24T13:01:19;9.07;;;1.98;;
5674;SDS011;2860;54.284;10.158;2023-03-24T13:06:39;11.05;;;1.88;;
5674;SDS011;2860;54.284;10.158;2023-03-24T13:09:21;9.07;;;1.50;;
5674;SDS011;2860;54.284;10.158;2023-03-24T13:12:06;8.10;;;2.58;;
5674;SDS011;2860;54.284;10.158;2023-03-24T13:14:42;8.32;;;2.72;;
5674;SDS011;2860;54.284;10.158;2023-03-24T13:17:15;8.05;;;1.55;;
5674;SDS011;2860;54.284;10.158;2023-03-24T13:19:45;10.32;;;2.45;;
5674;SDS011;2860;54.284;10.158;2023-03-24T13:22:15;9.52;;;2.95;;
5674;SDS011;2860;54.284;10.158;2023-03-24T13:24:44;13.90;;;2.78;;
5674;SDS011;2860;54.284;10.158;2023-03-24T13:29:54;4.13;;;1.33;;
5674;SDS011;2860;54.284;10.158;2023-03-24T13:32:45;11.77;;;2.22;;
5674;SDS011;2860;54.284;10.158;2023-03-24T13:38:15;10.90;;;1.98;;
5674;SDS011;2860;54.284;10.158;2023-03-24T13:41:03;9.13;;;1.58;;
5674;SDS011;2860;54.284;10.158;2023-03-24T13:43:31;10.60;;;1.40;;
5674;SDS011;2860;54.284;10.158;2023-03-24T13:45:59;6.43;;;1.60;;
5674;SDS011;2860;54.284;10.158;2023-03-24T13:48:39;13.85;;;1.42;;
5674;SDS011;2860;54.284;10.158;2023-03-24T13:51:17;9.88;;;2.45;;
5674;SDS011;2860;54.284;10.158;2023-03-24T13:53:52;11.70;;;2.22;;
5674;SDS011;2860;54.284;10.158;2023-03-24T13:56:22;9.70;;;3.47;;
5674;SDS011;2860;54.284;10.158;2023-03-24T13:59:22;9.60;;;1.50;;
5674;SDS011;2860;54.284;10.158;2023-03-24T14:04:47;6.18;;;1.60;;
5674;SDS011;2860;54.284;10.158;2023-03-24T14:12:54;6.90;;;2.05;;
5674;SDS011;2860;54.284;10.158;2023-03-24T14:18:12;4.20;;;1.55;;
5674;SDS011;2860;54.284;10.158;2023-03-24T14:20:38;6.85;;;1.73;;
5674;SDS011;2860;54.284;10.158;2023-03-24T14:23:22;11.35;;;2.08;;
5674;SDS011;2860;54.284;10.158;2023-03-24T14:25:55;5.78;;;1.95;;
5674;SDS011;2860;54.284;10.158;2023-03-24T14:28:32;7.97;;;2.85;;
5674;SDS011;2860;54.284;10.158;2023-03-24T14:33:39;11.63;;;1.77;;
5674;SDS011;2860;54.284;10.158;2023-03-24T14:41:46;5.47;;;1.40;;
5674;SDS011;2860;54.284;10.158;2023-03-24T14:44:15;7.05;;;1.67;;
5674;SDS011;2860;54.284;10.158;2023-03-24T14:47:21;6.97;;;1.63;;
5674;SDS011;2860;54.284;10.158;2023-03-24T14:49:50;8.05;;;1.50;;
5674;SDS011;2860;54.284;10.158;2023-03-24T14:55:01;5.10;;;1.33;;
5674;SDS011;2860;54.284;10.158;2023-03-24T14:57:30;7.93;;;1.63;;
5674;SDS011;2860;54.284;10.158;2023-03-24T15:00:15;7.32;;;1.50;;
5674;SDS011;2860;54.284;10.158;2023-03-24T15:02:46;6.53;;;1.40;;
5674;SDS011;2860;54.284;10.158;2023-03-24T15:05:34;8.43;;;1.75;;
5674;SDS011;2860;54.284;10.158;2023-03-24T15:18:51;6.13;;;1.35;;
5674;SDS011;2860;54.284;10.158;2023-03-24T15:23:59;7.10;;;1.42;;
5674;SDS011;2860;54.284;10.158;2023-03-24T15:26:29;9.65;;;2.13;;
5674;SDS011;2860;54.284;10.158;2023-03-24T15:31:30;7.95;;;2.15;;
5674;SDS011;2860;54.284;10.158;2023-03-24T15:34:57;5.38;;;1.50;;
5674;SDS011;2860;54.284;10.158;2023-03-24T15:36:56;5.13;;;1.30;;
5674;SDS011;2860;54.284;10.158;2023-03-24T15:39:24;7.07;;;2.28;;
5674;SDS011;2860;54.284;10.158;2023-03-24T15:41:51;8.10;;;1.70;;
5674;SDS011;2860;54.284;10.158;2023-03-24T15:44:18;6.20;;;2.00;;
5674;SDS011;2860;54.284;10.158;2023-03-24T15:46:46;13.23;;;1.73;;
5674;SDS011;2860;54.284;10.158;2023-03-24T15:51:58;15.13;;;2.03;;
5674;SDS011;2860;54.284;10.158;2023-03-24T15:54:30;6.78;;;1.55;;
5674;SDS011;2860;54.284;10.158;2023-03-24T15:57:12;7.07;;;2.60;;
5674;SDS011;2860;54.284;10.158;2023-03-24T15:59:47;9.23;;;2.47;;
5674;SDS011;2860;54.284;10.158;2023-03-24T16:02:18;5.97;;;1.75;;
5674;SDS011;2860;54.284;10.158;2023-03-24T16:04:54;15.88;;;2.47;;
5674;SDS011;2860;54.284;10.158;2023-03-24T16:07:27;3.15;;;1.42;;
5674;SDS011;2860;54.284;10.158;2023-03-24T16:10:00;6.30;;;1.90;;
5674;SDS011;2860;54.284;10.158;2023-03-24T16:12:34;10.38;;;2.13;;
5674;SDS011;2860;54.284;10.158;2023-03-24T16:15:00;7.60;;;2.17;;
5674;SDS011;2860;54.284;10.158;2023-03-24T16:17:29;9.68;;;2.17;;
5674;SDS011;2860;54.284;10.158;2023-03-24T16:19:56;10.05;;;2.20;;
5674;SDS011;2860;54.284;10.158;2023-03-24T16:22:21;9.50;;;2.95;;
5674;SDS011;2860;54.284;10.158;2023-03-24T16:24:47;12.30;;;2.63;;
5674;SDS011;2860;54.284;10.158;2023-03-24T16:27:13;9.68;;;2.05;;
5674;SDS011;2860;54.284;10.158;2023-03-24T16:29:38;9.60;;;2.70;;
5674;SDS011;2860;54.284;10.158;2023-03-24T16:32:04;9.15;;;2.47;;
5674;SDS011;2860;54.284;10.158;2023-03-24T16:34:30;8.32;;;2.10;;
5674;SDS011;2860;54.284;10.158;2023-03-24T16:36:56;7.28;;;1.85;;
5674;SDS011;2860;54.284;10.158;2023-03-24T16:39:23;7.00;;;1.45;;
5674;SDS011;2860;54.284;10.158;2023-03-24T16:41:50;12.65;;;2.03;;
5674;SDS011;2860;54.284;10.158;2023-03-24T16:44:16;4.72;;;2.00;;
5674;SDS011;2860;54.284;10.158;2023-03-24T16:46:41;7.32;;;2.03;;
5674;SDS011;2860;54.284;10.158;2023-03-24T16:49:09;14.02;;;3.08;;
5674;SDS011;2860;54.284;10.158;2023-03-24T16:51:37;11.55;;;2.00;;
5674;SDS011;2860;54.284;10.158;2023-03-24T16:54:03;10.27;;;2.25;;
5674;SDS011;2860;54.284;10.158;2023-03-24T16:56:29;10.80;;;1.83;;
5674;SDS011;2860;54.284;10.158;2023-03-24T16:58:55;7.57;;;2.08;;
5674;SDS011;2860;54.284;10.158;2023-03-24T17:01:33;7.00;;;2.35;;
5674;SDS011;2860;54.284;10.158;2023-03-24T17:04:02;15.77;;;2.58;;
5674;SDS011;2860;54.284;10.158;2023-03-24T17:06:36;11.45;;;1.85;;
5674;SDS011;2860;54.284;10.158;2023-03-24T17:09:03;9.48;;;2.47;;
5674;SDS011;2860;54.284;10.158;2023-03-24T17:11:33;14.23;;;2.47;;
5674;SDS011;2860;54.284;10.158;2023-03-24T17:14:00;10.50;;;2.83;;
5674;SDS011;2860;54.284;10.158;2023-03-24T17:16:29;8.07;;;2.63;;
5674;SDS011;2860;54.284;10.158;2023-03-24T17:19:05;10.98;;;1.90;;
5674;SDS011;2860;54.284;10.158;2023-03-24T17:21:31;12.65;;;2.58;;
5674;SDS011;2860;54.284;10.158;2023-03-24T17:23:58;11.63;;;2.72;;
5674;SDS011;2860;54.284;10.158;2023-03-24T17:26:24;14.80;;;2.15;;
5674;SDS011;2860;54.284;10.158;2023-03-24T17:28:49;10.68;;;2.45;;
5674;SDS011;2860;54.284;10.158;2023-03-24T17:31:15;14.13;;;2.63;;
5674;SDS011;2860;54.284;10.158;2023-03-24T17:33:41;2.53;;;1.77;;
5674;SDS011;2860;54.284;10.158;2023-03-24T17:36:06;13.48;;;3.20;;
5674;SDS011;2860;54.284;10.158;2023-03-24T17:38:37;15.07;;;2.45;;